Time;durP1;ratioP1;P1;durP2;ratioP2;P2;SDS_P1;SDS_P2;PMS_P1;PMS_P2;Temp;Humidity;BMP_temperature;BMP_pressure;BME280_temperature;BME280_humidity;BME280_pressure;Samples;Min_cycle;Max_cycle;Signal;HPM_P1;HPM_P2
2023/05/13 00:03:18;;;;;;;1.93;1.77;;;;;;;14.36;53.40;98008.34;8485025;27;20335;-69
2023/05/13 00:07:21;;;;;;;1.90;1.80;;;;;;;14.37;53.92;98009.16;8485496;28;20239;-68
2023/05/13 00:11:23;;;;;;;3.93;1.93;;;;;;;14.37;53.59;98009.16;8485351;28;20446;-69
2023/05/13 00:15:28;;;;;;;2.33;2.00;;;;;;;14.25;53.68;98006.34;8484985;27;20241;-69
2023/05/13 00:19:31;;;;;;;2.30;2.10;;;;;;;14.24;53.72;97996.00;8485305;28;20231;-68
2023/05/13 00:23:34;;;;;;;2.73;2.20;;;;;;;14.09;54.27;97971.72;8485119;27;20237;-69
2023/05/13 00:27:37;;;;;;;1.97;1.87;;;;;;;13.40;54.03;97861.19;8484659;27;20240;-68
2023/05/13 00:31:41;;;;;;;2.27;2.17;;;;;;;14.16;53.85;97995.63;8484800;27;20262;-68
2023/05/13 00:35:43;;;;;;;2.43;1.90;;;;;;;14.12;53.87;97989.75;8484489;28;20335;-68
2023/05/13 00:39:46;;;;;;;2.10;2.00;;;;;;;14.14;54.23;97998.31;8483096;27;20240;-68
2023/05/13 00:43:50;;;;;;;2.93;1.93;;;;;;;14.13;53.84;98004.47;8484266;28;20225;-68
2023/05/13 00:47:54;;;;;;;2.10;2.00;;;;;;;13.74;53.64;97935.56;8484291;27;20224;-69
2023/05/13 00:51:57;;;;;;;3.90;2.50;;;;;;;14.17;54.03;98008.56;8484064;28;20456;-69
2023/05/13 00:56:00;;;;;;;2.40;2.20;;;;;;;14.07;54.40;98005.66;8483899;27;20232;-69
2023/05/13 01:00:04;;;;;;;2.83;2.20;;;;;;;14.13;54.14;98004.47;8484027;27;20237;-68
2023/05/13 01:04:18;;;;;;;2.40;2.10;;;;;;;13.81;54.25;97975.91;8483707;28;20298;-69
2023/05/13 01:08:24;;;;;;;2.77;2.30;;;;;;;14.06;54.87;97997.94;8475304;27;20460;-69
2023/05/13 01:12:32;;;;;;;2.43;2.23;;;;;;;14.05;54.32;98006.66;8483102;27;20229;-69
2023/05/13 01:16:40;;;;;;;2.37;2.17;;;;;;;13.95;54.39;98006.34;8483232;28;20225;-68
2023/05/13 01:20:44;;;;;;;2.20;2.10;;;;;;;13.97;54.21;98007.09;8483111;27;20460;-69
2023/05/13 01:24:49;;;;;;;2.87;2.30;;;;;;;13.93;54.49;98012.59;8482898;27;20233;-68
2023/05/13 01:28:52;;;;;;;3.53;2.27;;;;;;;13.75;54.92;97999.69;8482787;27;20236;-68
2023/05/13 01:32:55;;;;;;;2.73;2.40;;;;;;;13.87;54.62;98014.59;8482821;28;20228;-68
2023/05/13 01:36:58;;;;;;;2.40;2.10;;;;;;;13.77;54.66;98023.88;8482711;28;20221;-68
2023/05/13 01:41:02;;;;;;;3.67;2.20;;;;;;;13.82;54.32;98019.25;8482399;28;20228;-68
2023/05/13 01:45:06;;;;;;;4.30;2.07;;;;;;;13.79;54.71;98018.59;8482206;27;20220;-68
2023/05/13 01:49:09;;;;;;;3.20;2.17;;;;;;;13.63;55.45;98010.78;8481817;28;20231;-68
2023/05/13 01:53:12;;;;;;;3.67;2.13;;;;;;;13.60;55.70;98018.78;8482202;28;20448;-68
2023/05/13 01:57:17;;;;;;;2.67;2.00;;;;;;;13.66;55.60;98016.66;8482055;27;20555;-69
2023/05/13 02:01:19;;;;;;;2.50;2.30;;;;;;;13.55;55.30;98015.59;8473342;28;20252;-69
2023/05/13 02:05:24;;;;;;;2.30;2.10;;;;;;;13.46;55.82;98009.97;8481553;27;20541;-69
2023/05/13 02:09:27;;;;;;;2.27;2.07;;;;;;;13.38;56.17;97978.34;8481312;27;20232;-68
2023/05/13 02:13:31;;;;;;;3.77;2.33;;;;;;;13.47;56.46;98021.22;8481415;28;20250;-68
2023/05/13 02:17:35;;;;;;;2.40;2.30;;;;;;;13.39;55.93;98019.03;8481399;28;20419;-69
2023/05/13 02:21:37;;;;;;;2.83;2.30;;;;;;;13.45;56.04;98023.91;8481112;27;20252;-69
2023/05/13 02:25:41;;;;;;;4.30;2.40;;;;;;;13.44;55.96;98017.03;8481283;28;20224;-68
2023/05/13 02:29:45;;;;;;;2.83;2.37;;;;;;;13.45;55.84;98021.28;8480843;27;20484;-68
2023/05/13 02:33:48;;;;;;;3.90;2.40;;;;;;;13.27;56.08;98019.69;8481101;28;20232;-68
2023/05/13 02:37:51;;;;;;;4.07;2.40;;;;;;;13.23;56.53;98028.56;8480786;28;20542;-68
2023/05/13 02:41:54;;;;;;;3.40;2.53;;;;;;;13.20;56.50;98026.97;8480764;28;20224;-68
2023/05/13 02:45:58;;;;;;;3.00;2.20;;;;;;;13.16;56.40;98022.88;8480540;27;20242;-68
2023/05/13 02:50:00;;;;;;;2.60;2.00;;;;;;;13.15;56.29;98022.94;8480464;28;20238;-68
2023/05/13 02:54:03;;;;;;;3.00;1.90;;;;;;;13.25;55.55;98029.31;8480264;28;20223;-68
2023/05/13 02:58:06;;;;;;;2.10;2.00;;;;;;;13.10;56.02;98020.59;8480236;28;20226;-69
2023/05/13 03:02:11;;;;;;;2.33;2.20;;;;;;;13.05;56.34;98023.44;8479391;28;20237;-68
2023/05/13 03:06:13;;;;;;;2.40;2.20;;;;;;;12.98;56.85;98027.28;8480120;28;20231;-68
2023/05/13 03:10:16;;;;;;;3.53;2.40;;;;;;;12.98;56.40;98032.47;8480395;27;20228;-68
2023/05/13 03:14:19;;;;;;;2.53;2.20;;;;;;;12.96;57.13;98034.31;8471294;28;20224;-69
2023/05/13 03:18:23;;;;;;;2.23;2.13;;;;;;;12.94;57.08;98027.53;8479994;28;20227;-68
2023/05/13 03:22:25;;;;;;;2.50;2.30;;;;;;;13.10;56.28;98037.03;8479888;27;20290;-69
2023/05/13 03:26:28;;;;;;;3.70;2.20;;;;;;;13.00;56.13;98035.00;8479675;28;20230;-68
2023/05/13 03:30:31;;;;;;;2.20;2.10;;;;;;;12.92;56.47;98030.19;8479356;27;20235;-68
2023/05/13 03:34:36;;;;;;;2.13;1.97;;;;;;;12.50;56.44;97980.41;8479509;28;20229;-68
2023/05/13 03:38:39;;;;;;;2.50;2.30;;;;;;;12.81;56.84;98042.91;8479405;28;20226;-68
2023/05/13 03:42:42;;;;;;;3.47;2.20;;;;;;;12.92;56.69;98043.19;8478934;28;20232;-68
2023/05/13 03:46:44;;;;;;;3.47;2.20;;;;;;;12.96;56.74;98041.28;8479358;27;20246;-68
2023/05/13 03:50:49;;;;;;;2.73;2.20;;;;;;;12.90;56.83;98045.88;8479324;28;20235;-68
2023/05/13 03:54:51;;;;;;;2.50;2.30;;;;;;;12.95;56.23;98048.25;8479642;28;20528;-69
2023/05/13 03:58:54;;;;;;;2.47;2.20;;;;;;;12.98;56.41;98045.47;8479157;27;20227;-68
2023/05/13 04:02:57;;;;;;;2.47;2.27;;;;;;;12.85;57.33;98053.09;8479025;28;20526;-68
2023/05/13 04:07:01;;;;;;;2.57;2.33;;;;;;;12.34;57.05;97948.38;8478955;28;20250;-68
2023/05/13 04:11:04;;;;;;;2.93;2.30;;;;;;;12.91;57.34;98052.75;8479133;27;20230;-68
2023/05/13 04:15:08;;;;;;;2.43;2.20;;;;;;;12.99;56.95;98049.75;8484150;28;20223;-68
2023/05/13 04:19:11;;;;;;;3.17;2.20;;;;;;;13.01;56.35;98060.09;8485149;27;20239;-68
2023/05/13 04:23:15;;;;;;;2.67;2.47;;;;;;;12.91;56.44;98057.97;8485027;27;20223;-68
2023/05/13 04:27:18;;;;;;;2.83;2.47;;;;;;;12.91;56.78;98063.16;8476573;27;20293;-69
2023/05/13 04:31:21;;;;;;;2.90;2.70;;;;;;;12.87;56.87;98072.03;8476587;28;20220;-69
2023/05/13 04:35:24;;;;;;;2.77;2.50;;;;;;;12.85;57.18;98067.81;8484935;27;20349;-68
2023/05/13 04:39:28;;;;;;;3.57;2.83;;;;;;;12.91;56.96;98067.53;8484380;28;20239;-68
2023/05/13 04:43:31;;;;;;;3.00;2.80;;;;;;;12.78;57.95;98077.72;8484105;28;20230;-68
2023/05/13 04:47:36;;;;;;;3.80;2.70;;;;;;;13.02;57.36;98066.94;8483881;27;20261;-68
2023/05/13 04:51:39;;;;;;;2.97;2.77;;;;;;;13.09;57.41;98083.91;8484095;28;20570;-68
2023/05/13 04:55:45;;;;;;;2.90;2.70;;;;;;;13.27;57.08;98076.91;8483850;27;20235;-68
2023/05/13 04:59:47;;;;;;;3.20;2.47;;;;;;;13.33;57.41;98081.81;8483907;27;20223;-68
2023/05/13 05:03:50;;;;;;;2.87;2.40;;;;;;;13.33;57.89;98076.59;8483464;27;20231;-68
2023/05/13 05:07:53;;;;;;;2.90;2.70;;;;;;;13.30;58.11;98048.16;8483654;27;20339;-68
2023/05/13 05:11:57;;;;;;;2.77;2.50;;;;;;;13.52;58.46;98084.25;8483625;28;20243;-68
2023/05/13 05:16:00;;;;;;;3.37;2.80;;;;;;;13.64;58.03;98067.13;8483314;28;20226;-68
2023/05/13 05:20:03;;;;;;;3.07;2.83;;;;;;;13.75;57.86;98087.38;8483333;27;20453;-68
2023/05/13 05:24:07;;;;;;;4.13;2.80;;;;;;;13.92;57.95;98086.41;8482705;28;20535;-68
2023/05/13 05:28:11;;;;;;;3.00;2.80;;;;;;;14.08;57.59;98093.25;8482848;27;20547;-68
2023/05/13 05:32:16;;;;;;;2.87;2.60;;;;;;;14.11;57.42;98094.88;8482794;27;20428;-68
2023/05/13 05:36:19;;;;;;;2.90;2.70;;;;;;;14.30;57.27;98099.00;8472096;27;20246;-68
2023/05/13 05:40:22;;;;;;;3.70;2.53;;;;;;;14.49;57.33;98099.66;8482417;27;20375;-68
2023/05/13 05:44:26;;;;;;;3.30;2.93;;;;;;;14.56;57.08;98105.31;8482472;28;20234;-68
2023/05/13 05:48:29;;;;;;;2.97;2.77;;;;;;;14.57;57.22;98091.41;8482172;28;20236;-67
2023/05/13 05:52:35;;;;;;;3.13;2.93;;;;;;;14.79;56.01;98102.25;8482291;27;20233;-67
2023/05/13 05:56:38;;;;;;;3.30;2.40;;;;;;;15.03;56.09;98101.72;8482187;27;20237;-67
2023/05/13 06:00:42;;;;;;;2.53;2.43;;;;;;;14.94;55.80;98107.47;8481859;27;20229;-67
2023/05/13 06:04:46;;;;;;;2.80;2.60;;;;;;;15.19;56.24;98107.69;8481714;27;20566;-67
2023/05/13 06:08:49;;;;;;;2.77;2.57;;;;;;;15.39;55.67;98106.44;8481587;28;20230;-67
2023/05/13 06:12:51;;;;;;;4.93;2.93;;;;;;;14.93;54.48;98087.56;8481571;27;20225;-67
2023/05/13 06:16:55;;;;;;;6.00;3.00;;;;;;;15.44;55.04;98096.56;8481421;27;20414;-70
2023/05/13 06:20:58;;;;;;;3.60;3.30;;;;;;;15.43;54.89;98107.09;8481305;28;20230;-68
2023/05/13 06:25:01;;;;;;;3.40;3.10;;;;;;;15.52;54.67;98116.16;8481351;27;20231;-68
2023/05/13 06:29:03;;;;;;;2.97;2.77;;;;;;;15.54;53.89;98099.44;8480969;27;20227;-67
2023/05/13 06:33:09;;;;;;;2.90;2.70;;;;;;;15.75;54.44;98112.13;8480802;28;20313;-68
2023/05/13 06:37:12;;;;;;;2.97;2.67;;;;;;;15.05;54.73;98107.66;8480123;28;20230;-67
2023/05/13 06:41:15;;;;;;;3.20;2.97;;;;;;;15.01;55.22;98112.22;8480700;28;20564;-67
2023/05/13 06:45:21;;;;;;;2.90;2.70;;;;;;;14.80;55.91;98098.69;8471837;28;20297;-68
2023/05/13 06:49:28;;;;;;;2.80;2.60;;;;;;;15.03;55.37;98106.94;8480375;27;20235;-68
2023/05/13 06:53:31;;;;;;;2.60;2.40;;;;;;;14.72;54.47;98100.09;8480141;27;20237;-68
2023/05/13 06:57:34;;;;;;;2.70;1.87;;;;;;;14.86;53.76;98077.47;8480309;28;20241;-68
2023/05/13 07:01:44;;;;;;;2.20;2.00;;;;;;;14.93;54.19;98093.59;8480242;28;20230;-68
2023/05/13 07:05:48;;;;;;;2.20;2.10;;;;;;;14.90;54.65;98114.63;8479973;28;20241;-68
2023/05/13 07:09:51;;;;;;;2.57;2.30;;;;;;;15.07;53.96;98086.72;8480089;28;20241;-68
2023/05/13 07:13:54;;;;;;;2.00;1.90;;;;;;;14.93;53.34;98091.00;8479137;27;20229;-68
2023/05/13 07:17:59;;;;;;;1.60;1.50;;;;;;;15.58;52.67;98119.19;8479996;27;20226;-68
2023/05/13 07:22:05;;;;;;;1.57;1.47;;;;;;;15.73;53.05;98085.25;8479683;28;20230;-68
2023/05/13 07:26:10;;;;;;;1.87;1.70;;;;;;;15.47;52.78;98058.16;8478714;27;20360;-68
2023/05/13 07:30:13;;;;;;;2.47;1.67;;;;;;;15.27;52.07;98116.78;8479663;27;20231;-67
2023/05/13 07:34:16;;;;;;;2.00;1.80;;;;;;;15.10;53.20;98112.59;8479521;28;20234;-66
2023/05/13 07:38:21;;;;;;;3.10;2.30;;;;;;;15.16;52.89;98118.28;8471039;28;20231;-68
2023/05/13 07:42:24;;;;;;;2.13;1.93;;;;;;;15.62;52.65;98123.28;8479680;27;20239;-68
2023/05/13 07:46:27;;;;;;;2.20;2.00;;;;;;;15.30;52.56;98124.44;8479482;27;20420;-68
2023/05/13 07:50:30;;;;;;;2.73;2.13;;;;;;;15.33;51.76;98085.97;8485358;27;20234;-68
2023/05/13 07:54:34;;;;;;;2.03;1.93;;;;;;;15.42;52.29;98110.63;8485845;28;20230;-68
2023/05/13 07:58:37;;;;;;;2.30;1.90;;;;;;;16.15;51.23;98126.06;8485872;27;20237;-68
2023/05/13 08:02:41;;;;;;;2.73;1.83;;;;;;;16.32;51.13;98117.16;8485525;27;20234;-68
2023/05/13 08:06:45;;;;;;;2.43;2.00;;;;;;;16.18;50.69;98118.06;8485485;27;20229;-68
2023/05/13 08:10:49;;;;;;;2.13;1.90;;;;;;;15.90;51.11;98113.75;8485358;27;20423;-68
2023/05/13 08:14:52;;;;;;;2.20;1.90;;;;;;;15.92;51.03;98116.28;8485518;27;20227;-68
2023/05/13 08:18:55;;;;;;;1.97;1.80;;;;;;;15.70;52.25;98124.59;8485066;27;20231;-68
2023/05/13 08:22:57;;;;;;;2.00;1.90;;;;;;;15.49;51.56;98119.75;8485111;28;20282;-68
2023/05/13 08:27:02;;;;;;;1.90;1.73;;;;;;;15.75;51.52;98126.00;8485066;27;20455;-68
2023/05/13 08:31:05;;;;;;;1.90;1.80;;;;;;;15.57;52.24;98117.53;8484629;27;20441;-68
2023/05/13 08:35:08;;;;;;;2.67;2.10;;;;;;;15.75;51.81;98118.16;8484592;28;20225;-68
2023/05/13 08:39:11;;;;;;;1.70;1.60;;;;;;;16.25;51.15;98115.88;8484309;27;20231;-68
2023/05/13 08:43:15;;;;;;;2.20;1.83;;;;;;;16.59;50.54;98106.63;8484393;27;20222;-68
2023/05/13 08:47:26;;;;;;;1.80;1.70;;;;;;;16.48;50.45;98116.97;8475511;28;20314;-68
2023/05/13 08:51:30;;;;;;;2.13;1.93;;;;;;;16.47;50.30;98115.31;8483958;27;20232;-68
2023/05/13 08:55:33;;;;;;;2.70;2.07;;;;;;;16.44;50.65;98128.56;8483980;27;20360;-68
2023/05/13 08:59:37;;;;;;;3.20;1.90;;;;;;;16.20;50.94;98126.63;8482786;28;20252;-68
2023/05/13 09:03:50;;;;;;;2.10;1.90;;;;;;;16.19;51.31;98124.09;8483532;27;20231;-67
2023/05/13 09:07:53;;;;;;;2.50;2.10;;;;;;;16.10;50.68;98102.00;8483365;28;20230;-68
2023/05/13 09:11:56;;;;;;;2.17;1.57;;;;;;;16.00;50.74;98119.22;8483281;28;20235;-68
2023/05/13 09:16:01;;;;;;;1.80;1.70;;;;;;;16.48;49.85;98119.59;8483363;27;20317;-68
2023/05/13 09:20:07;;;;;;;1.83;1.60;;;;;;;16.53;50.50;98117.50;8483044;28;20286;-68
2023/05/13 09:24:12;;;;;;;1.50;1.40;;;;;;;16.36;50.19;98129.06;8483065;28;20546;-67
2023/05/13 09:28:15;;;;;;;1.20;1.20;;;;;;;15.62;50.81;98072.84;8482829;28;20227;-69
2023/05/13 09:32:19;;;;;;;1.50;1.40;;;;;;;15.85;50.84;98128.03;8473961;27;20421;-69
2023/05/13 09:36:22;;;;;;;1.20;1.20;;;;;;;15.64;51.13;98126.63;8482348;27;20225;-69
2023/05/13 09:40:25;;;;;;;1.63;1.40;;;;;;;15.56;50.55;98094.13;8482556;28;20246;-69
2023/05/13 09:44:31;;;;;;;2.13;1.60;;;;;;;15.57;51.84;98134.94;8482456;27;20244;-68
2023/05/13 09:48:36;;;;;;;1.20;1.20;;;;;;;15.43;51.96;98136.63;8482561;28;20227;-68
2023/05/13 09:52:39;;;;;;;1.40;1.30;;;;;;;15.69;51.98;98134.19;8482316;28;20230;-68
2023/05/13 09:56:42;;;;;;;1.30;1.20;;;;;;;15.87;51.47;98132.22;8482322;28;20223;-68
2023/05/13 10:00:45;;;;;;;1.57;1.50;;;;;;;15.89;52.13;98139.97;8482042;28;20234;-69
2023/05/13 10:04:49;;;;;;;1.70;1.60;;;;;;;16.00;51.55;98140.13;8481963;27;20223;-68
2023/05/13 10:08:52;;;;;;;1.77;1.60;;;;;;;15.75;52.59;98138.22;8481957;27;20226;-67
2023/05/13 10:12:55;;;;;;;1.70;1.50;;;;;;;15.36;51.96;98059.66;8481282;28;20288;-68
2023/05/13 10:16:58;;;;;;;1.40;1.30;;;;;;;15.64;52.11;98139.69;8481714;28;20223;-69
2023/05/13 10:21:03;;;;;;;1.57;1.47;;;;;;;15.42;51.85;98139.34;8481036;28;20228;-69
2023/05/13 10:25:07;;;;;;;1.50;1.40;;;;;;;15.68;52.00;98144.72;8481066;28;20237;-69
2023/05/13 10:29:10;;;;;;;1.10;1.10;;;;;;;15.73;51.86;98121.78;8481073;28;20237;-69
2023/05/13 10:33:13;;;;;;;1.50;1.40;;;;;;;15.32;52.64;98130.41;8481107;27;20227;-68
2023/05/13 10:37:30;;;;;;;1.60;1.50;;;;;;;15.68;52.53;98137.72;8480935;27;20235;-69
2023/05/13 10:41:57;;;;;;;2.17;1.30;;;;;;;15.88;51.74;98131.31;8474022;28;20430;-69
2023/05/13 10:46:01;;;;;;;1.13;1.13;;;;;;;15.83;51.39;98134.19;8480823;27;20234;-69
2023/05/13 10:50:21;;;;;;;1.30;1.30;;;;;;;15.84;52.22;98140.28;8480417;28;20411;-69
2023/05/13 10:54:26;;;;;;;1.13;1.13;;;;;;;15.96;51.51;98142.09;8472608;27;20255;-69
2023/05/13 10:58:29;;;;;;;1.77;1.67;;;;;;;15.86;51.49;98140.16;8480601;28;20226;-69
2023/05/13 11:02:37;;;;;;;2.90;2.70;;;;;;;16.06;51.11;98133.66;8480510;28;20230;-69
2023/05/13 11:06:41;;;;;;;2.70;2.50;;;;;;;16.13;51.10;98134.97;8479826;27;20227;-69
2023/05/13 11:10:54;;;;;;;1.67;1.57;;;;;;;15.97;51.77;98149.00;8479847;28;20232;-69
2023/05/13 11:14:57;;;;;;;2.10;1.40;;;;;;;16.29;50.43;98148.69;8478450;28;20401;-69
2023/05/13 11:19:02;;;;;;;1.40;1.30;;;;;;;15.55;52.08;98121.16;8479899;28;20517;-69
2023/05/13 11:23:07;;;;;;;1.63;1.37;;;;;;;15.95;52.13;98144.78;8481984;27;20223;-68
2023/05/13 11:27:17;;;;;;;1.43;1.33;;;;;;;16.26;51.42;98143.69;8486934;27;20344;-69
2023/05/13 11:31:21;;;;;;;1.83;1.40;;;;;;;16.08;52.22;98143.06;8478178;27;20231;-69
2023/05/13 11:35:25;;;;;;;1.70;1.60;;;;;;;15.75;52.09;98099.91;8486719;27;20279;-68
2023/05/13 11:39:28;;;;;;;1.50;1.40;;;;;;;15.97;51.06;98122.03;8486253;28;20231;-68
2023/05/13 11:43:33;;;;;;;1.20;1.20;;;;;;;15.92;50.89;98142.41;8486597;27;20245;-69
2023/05/13 11:47:36;;;;;;;1.60;1.50;;;;;;;15.96;51.11;98120.38;8486463;27;20247;-68
2023/05/13 11:51:40;;;;;;;1.20;1.20;;;;;;;16.03;51.07;98140.78;8486102;28;20231;-68
2023/05/13 11:55:43;;;;;;;1.50;1.40;;;;;;;16.23;51.44;98120.34;8486098;27;20225;-68
2023/05/13 11:59:53;;;;;;;2.13;1.20;;;;;;;15.70;50.70;98043.66;8486124;27;20391;-68
2023/05/13 12:04:01;;;;;;;1.50;1.40;;;;;;;16.34;50.33;98144.00;8485716;27;20230;-68
2023/05/13 12:08:04;;;;;;;1.30;1.20;;;;;;;16.56;50.41;98143.47;8485842;27;20222;-68
2023/05/13 12:12:07;;;;;;;1.30;1.30;;;;;;;16.42;50.51;98143.50;8485467;27;20531;-68
2023/05/13 12:16:11;;;;;;;3.00;1.50;;;;;;;16.47;50.71;98151.03;8485639;28;20239;-68
2023/05/13 12:20:15;;;;;;;1.50;1.40;;;;;;;16.20;51.48;98155.38;8485291;28;20234;-68
2023/05/13 12:24:19;;;;;;;1.53;1.43;;;;;;;16.26;51.96;98155.88;8484552;28;20421;-70
2023/05/13 12:28:23;;;;;;;1.43;1.33;;;;;;;16.29;51.13;98160.94;8485057;27;20234;-68
2023/05/13 12:32:27;;;;;;;1.30;1.20;;;;;;;16.11;52.23;98161.19;8485005;27;20240;-69
2023/05/13 12:36:35;;;;;;;1.60;1.50;;;;;;;16.18;51.71;98162.47;8484572;28;20427;-69
2023/05/13 12:40:38;;;;;;;2.67;1.43;;;;;;;15.88;51.27;98094.75;8484322;27;20462;-69
2023/05/13 12:44:42;;;;;;;1.90;1.80;;;;;;;15.71;52.33;98148.00;8484435;27;20232;-69
2023/05/13 12:48:47;;;;;;;1.87;1.73;;;;;;;16.31;51.30;98174.72;8484390;27;20248;-69
2023/05/13 12:52:53;;;;;;;3.63;1.67;;;;;;;16.55;50.21;98161.84;8483754;27;20235;-69
2023/05/13 12:56:56;;;;;;;1.90;1.80;;;;;;;16.61;50.66;98158.81;8484041;27;20238;-69
2023/05/13 13:00:58;;;;;;;2.37;2.20;;;;;;;17.36;48.26;98148.56;8483912;27;20222;-69
2023/05/13 13:05:03;;;;;;;2.60;1.70;;;;;;;17.04;49.55;98147.28;8483809;28;20386;-69
2023/05/13 13:09:06;;;;;;;1.77;1.67;;;;;;;16.84;49.74;98146.03;8483815;27;20232;-69
2023/05/13 13:13:09;;;;;;;1.87;1.70;;;;;;;16.75;50.53;98155.28;8483326;27;20227;-68
2023/05/13 13:17:12;;;;;;;2.13;1.60;;;;;;;17.38;49.84;98146.69;8483563;27;20238;-69
2023/05/13 13:21:18;;;;;;;2.00;1.90;;;;;;;16.76;51.23;98151.75;8483557;27;20294;-69
2023/05/13 13:25:21;;;;;;;2.20;2.00;;;;;;;17.22;50.46;98155.69;8448902;27;20262;-69
2023/05/13 13:29:25;;;;;;;2.00;1.80;;;;;;;17.57;50.27;98143.63;8449327;28;20437;-69
2023/05/13 13:33:28;;;;;;;1.83;1.73;;;;;;;17.72;50.23;98133.81;8449695;27;20234;-68
2023/05/13 13:37:34;;;;;;;1.90;1.80;;;;;;;17.81;49.61;98137.56;8449658;28;20257;-69
2023/05/13 13:41:39;;;;;;;2.13;2.03;;;;;;;17.70;49.36;98132.25;8449528;28;20436;-69
2023/05/13 13:45:42;;;;;;;1.80;1.63;;;;;;;17.79;47.96;98129.81;8448824;28;20225;-69
2023/05/13 13:49:45;;;;;;;1.97;1.80;;;;;;;17.66;48.99;98104.63;8449264;27;20237;-69
2023/05/13 13:53:51;;;;;;;2.00;1.70;;;;;;;17.61;48.30;98104.97;8448403;28;20415;-69
2023/05/13 13:57:54;;;;;;;3.00;2.10;;;;;;;17.27;49.39;98123.03;8448758;27;20223;-69
2023/05/13 14:01:57;;;;;;;2.77;2.07;;;;;;;17.36;49.46;98111.91;8448670;27;20293;-69
2023/05/13 14:06:00;;;;;;;1.90;1.80;;;;;;;18.22;48.97;98088.38;8448356;27;20234;-69
2023/05/13 14:10:05;;;;;;;2.67;1.80;;;;;;;18.16;47.48;98108.88;8448507;28;20225;-69
2023/05/13 14:14:08;;;;;;;3.43;3.10;;;;;;;18.46;46.19;98101.47;8447982;28;20231;-69
2023/05/13 14:18:11;;;;;;;1.87;1.73;;;;;;;17.76;48.29;98101.25;8447894;27;20238;-69
2023/05/13 14:22:14;;;;;;;1.53;1.43;;;;;;;17.27;48.45;98102.09;8447785;28;20549;-69
2023/05/13 14:26:18;;;;;;;2.60;2.50;;;;;;;18.10;48.45;98103.22;8447581;27;20233;-69
2023/05/13 14:30:21;;;;;;;3.50;3.20;;;;;;;17.38;49.62;98104.78;8446954;28;20558;-69
2023/05/13 14:34:25;;;;;;;5.30;4.90;;;;;;;17.73;49.86;98104.06;8447314;28;20289;-69
2023/05/13 14:38:28;;;;;;;3.10;2.80;;;;;;;17.61;49.70;98106.72;8447151;27;20550;-69
2023/05/13 14:42:32;;;;;;;2.90;2.70;;;;;;;17.84;49.25;98108.59;8447350;28;20245;-69
2023/05/13 14:46:37;;;;;;;1.87;1.70;;;;;;;17.04;49.66;98101.06;8447133;28;20235;-69
2023/05/13 14:50:39;;;;;;;1.60;1.50;;;;;;;16.86;49.55;98105.75;8447138;28;20262;-69
2023/05/13 14:54:43;;;;;;;1.97;1.87;;;;;;;16.94;49.76;98100.00;8447066;28;20231;-69
2023/05/13 14:58:48;;;;;;;1.70;1.60;;;;;;;16.87;49.59;98098.72;8446180;28;20573;-69
2023/05/13 15:02:51;;;;;;;2.90;2.63;;;;;;;16.85;50.83;98101.47;8446746;27;20226;-69
2023/05/13 15:06:54;;;;;;;2.00;1.90;;;;;;;17.08;50.25;98086.81;8446628;28;20230;-69
2023/05/13 15:11:01;;;;;;;1.93;1.73;;;;;;;16.73;50.25;98061.25;8446661;28;20427;-69
2023/05/13 15:15:09;;;;;;;2.53;2.43;;;;;;;17.33;49.28;98085.94;8446543;28;20228;-69
2023/05/13 15:19:12;;;;;;;2.20;2.00;;;;;;;17.38;49.37;98086.47;8446311;27;20225;-69
2023/05/13 15:23:15;;;;;;;1.97;1.87;;;;;;;17.16;49.67;98068.81;8446435;28;20230;-69
2023/05/13 15:27:18;;;;;;;1.90;1.80;;;;;;;16.92;49.80;98081.78;8446169;27;20234;-69
2023/05/13 15:31:22;;;;;;;1.60;1.50;;;;;;;17.56;48.52;98076.47;8471187;27;20544;-69
2023/05/13 15:35:26;;;;;;;4.23;3.27;;;;;;;17.72;47.72;98073.56;8480016;28;20230;-69
2023/05/13 15:39:28;;;;;;;5.67;5.33;;;;;;;17.63;47.99;98073.41;8479726;28;20227;-69
2023/05/13 15:43:32;;;;;;;1.57;1.57;;;;;;;17.74;48.98;98061.22;8479807;27;20281;-69
2023/05/13 15:47:37;;;;;;;1.50;1.40;;;;;;;17.47;47.90;98052.72;8479557;28;20276;-69
2023/05/13 15:51:40;;;;;;;1.40;1.40;;;;;;;17.25;48.10;98069.09;8479432;28;20234;-69
2023/05/13 15:55:43;;;;;;;1.90;1.80;;;;;;;17.22;47.99;98062.31;8479610;27;20224;-69
2023/05/13 15:59:46;;;;;;;1.50;1.40;;;;;;;17.72;46.65;98054.41;8479013;28;20239;-69
2023/05/13 16:03:51;;;;;;;1.63;1.53;;;;;;;18.16;46.91;98051.22;8479284;28;20235;-69
2023/05/13 16:07:54;;;;;;;1.10;1.10;;;;;;;17.85;47.47;98049.16;8479458;27;20579;-69
2023/05/13 16:11:57;;;;;;;2.50;1.90;;;;;;;17.89;47.90;98053.22;8485467;27;20237;-69
2023/05/13 16:16:00;;;;;;;2.93;1.50;;;;;;;17.68;47.17;98048.56;8485216;27;20252;-69
2023/05/13 16:20:05;;;;;;;1.30;1.30;;;;;;;17.09;47.12;98053.63;8485494;28;20249;-69
2023/05/13 16:24:08;;;;;;;1.50;1.27;;;;;;;17.14;47.73;98062.00;8485367;27;20223;-69
2023/05/13 16:28:11;;;;;;;1.50;1.40;;;;;;;17.20;47.54;98053.72;8484995;28;20227;-69
2023/05/13 16:32:13;;;;;;;1.30;1.30;;;;;;;17.68;46.27;98043.31;8483375;28;20496;-68
2023/05/13 16:36:18;;;;;;;1.53;1.40;;;;;;;17.16;47.21;98019.09;8484690;27;20471;-69
2023/05/13 16:40:20;;;;;;;3.10;2.60;;;;;;;16.99;48.44;98043.81;8476324;28;20238;-68
2023/05/13 16:44:23;;;;;;;2.60;2.50;;;;;;;17.56;47.81;98039.81;8484251;28;20230;-68
2023/05/13 16:48:26;;;;;;;1.75;1.65;;;;;;;18.01;47.22;98039.25;8483851;27;20409;-69
2023/05/13 16:52:32;;;;;;;1.60;1.50;;;;;;;17.42;48.73;98036.50;8484356;28;20481;-69
2023/05/13 16:56:35;;;;;;;1.73;1.63;;;;;;;17.10;48.75;98031.78;8484453;27;20230;-69
2023/05/13 17:00:38;;;;;;;1.90;1.30;;;;;;;16.88;47.19;98035.88;8484054;28;20523;-68
2023/05/13 17:04:41;;;;;;;1.67;1.57;;;;;;;17.15;46.83;98048.81;8484180;27;20510;-68
2023/05/13 17:08:46;;;;;;;1.40;1.30;;;;;;;16.94;47.13;98035.44;8484055;28;20227;-68
2023/05/13 17:12:49;;;;;;;1.60;1.50;;;;;;;17.11;47.26;98038.66;8483705;28;20223;-68
2023/05/13 17:16:52;;;;;;;2.50;2.40;;;;;;;17.07;48.02;98045.06;8483788;27;20225;-68
2023/05/13 17:20:54;;;;;;;2.40;2.30;;;;;;;17.01;48.57;98043.72;8482867;28;20234;-68
2023/05/13 17:24:58;;;;;;;3.10;2.50;;;;;;;17.03;48.42;98044.44;8483503;28;20237;-68
2023/05/13 17:29:01;;;;;;;2.40;2.30;;;;;;;16.93;48.68;98040.78;8483092;27;20230;-68
2023/05/13 17:33:04;;;;;;;2.63;1.80;;;;;;;17.00;48.61;98044.63;8483266;28;20395;-68
2023/05/13 17:37:07;;;;;;;1.57;1.47;;;;;;;17.35;48.26;98033.50;8483186;27;20249;-68
2023/05/13 17:41:11;;;;;;;3.13;2.83;;;;;;;17.41;48.76;98038.28;8482835;28;20241;-67
2023/05/13 17:45:16;;;;;;;8.40;6.53;;;;;;;17.40;48.91;98033.97;8482437;27;20229;-68
2023/05/13 17:49:19;;;;;;;1.93;1.83;;;;;;;16.85;49.13;98030.88;8448541;28;20230;-68
2023/05/13 17:53:22;;;;;;;2.97;2.03;;;;;;;16.86;48.58;98039.53;8448725;28;20235;-68
2023/05/13 17:57:27;;;;;;;3.60;2.27;;;;;;;16.43;48.63;98043.28;8448730;27;20560;-69
2023/05/13 18:01:30;;;;;;;2.20;2.10;;;;;;;16.07;49.31;98046.50;8448830;28;20256;-68
2023/05/13 18:05:33;;;;;;;3.10;2.60;;;;;;;15.94;49.39;98051.72;8448395;28;20426;-68
2023/05/13 18:09:36;;;;;;;2.77;2.60;;;;;;;16.19;49.32;98050.94;8448213;27;20289;-68
2023/05/13 18:13:40;;;;;;;3.20;2.90;;;;;;;16.09;49.81;98053.34;8447960;28;20231;-68
2023/05/13 18:17:43;;;;;;;3.10;2.90;;;;;;;15.91;50.22;98033.63;8448052;28;20239;-68
2023/05/13 18:21:46;;;;;;;3.37;3.17;;;;;;;16.43;49.34;98056.34;8447895;27;20219;-68
2023/05/13 18:25:49;;;;;;;3.50;3.20;;;;;;;16.43;49.67;98056.34;8447850;28;20226;-68
2023/05/13 18:29:59;;;;;;;2.87;2.03;;;;;;;16.76;55.92;98061.06;8447317;28;20272;-67
2023/05/13 18:34:02;;;;;;;3.20;1.90;;;;;;;17.28;58.97;98054.00;8447234;28;20278;-66
2023/05/13 18:38:05;;;;;;;3.40;2.43;;;;;;;17.34;55.36;98066.69;8447265;28;20229;-67
2023/05/13 18:42:08;;;;;;;3.47;3.27;;;;;;;17.15;51.35;98059.28;8447274;28;20234;-67
2023/05/13 18:46:12;;;;;;;3.10;2.80;;;;;;;17.54;52.86;98075.75;8446852;28;20591;-67
2023/05/13 18:50:15;;;;;;;3.87;2.90;;;;;;;17.81;52.82;98073.88;8447030;28;20239;-67
2023/05/13 18:54:18;;;;;;;3.33;3.10;;;;;;;18.07;50.79;98079.88;8445279;28;20422;-69
2023/05/13 18:58:21;;;;;;;3.17;2.87;;;;;;;17.75;51.29;98068.13;8446555;28;20319;-68
2023/05/13 19:02:25;;;;;;;3.17;2.97;;;;;;;17.29;48.65;98087.09;8446703;27;20231;-69
2023/05/13 19:06:28;;;;;;;3.70;3.50;;;;;;;17.87;48.02;98078.69;8444736;28;20411;-70
2023/05/13 19:10:32;;;;;;;3.97;3.60;;;;;;;17.10;49.77;98091.97;8446078;28;20227;-69